Terminal Aerodrome Forecast
Issued by NWS Shreveport, LA

Home | Current Version | Previous Version | Text Only | Print | Product List | Glossary On
Versions: 1 2 3 4 5 6 7 8 9 10 11 12 13 14
000
FTUS44 KSHV 020500
TAFLFK
TAF
KLFK 020540Z 0206/0306 05004KT P6SM OVC004
      TEMPO 0211/0215 2SM -DZ BR OVC001
     FM021500 02006KT 1 1/2SM BR OVC004
     FM030000 07002KT 2SM BR OVC004=

USA.gov is the U.S. government's official web portal to all federal, state and local government web resources and services.